Aeroporto :
LOGIN :

Iscrizione | Disclaimer

   EN    FR    IT 

 










Sommario :    VFR   VFR Marginale   IFR   IFR Intensivo   IFR Molto Intensivo
Visibilità : 
Base nubi : 
>= 8 km
>= 3000ft
5 / 8 km
1000 / 3000 ft
1500m / 5 km
500 / 1000 ft
800 / 1500m
200 / 500 ft
< 800m
< 200 ft
Simboli :   Temporali  Nebbia  Neve Forte  Precipitazioni Forti  Vento > 20 kt
SIGMETs :   Varie  Temporali  Ghiacco  Turbolenza  Onda orograficha  Ceneri Vulcaniche







- Altitudine del aeroporto : 1197 ft
- Codice IATA : SPM


ETAD - Spangdahlem Ab

ULTIMO METAR :
  • 170056Z AUTO 06003KT 9999 CLR 16/13 A2994 RMK AO2 SLP116 T01610128 $

METARs OBSOLETI :
  • 162356Z AUTO 08003KT 9999 CLR 18/13 A2995 RMK AO2 SLP118 T01770130 10264 20175 58001 $
  • 162256Z AUTO 00000KT 9999 CLR 18/13 A2996 RMK AO2 SLP122 T01750132 402810117 $

TAF TAF ETAD
Valido dal 16 a 19 ore il 18 a 01 ore UTC


161901Z 1619/1801 VRB06KT 9999 FEW045 QNH2988INS
BECMG 1704/1705 02009KT 8000 -SHRA SCT014 QNH2991INS
TEMPO 1712/1714 VRB15G25KT 6000 -TSRA BKN015CB
BECMG 1714/1715 36010G15KT 9999 NSW BKN035 QNH3003INS
BECMG 1720/1721 VRB06KT 9999 BKN045 QNH3005INS TX29/1712Z TN13/1702Z LAST NO AMDS AFT 1620 NEXT 1704
Nessun NOTAM noto per questo aeroporto.



MetMap, La meteo Aeronautica in un colpo d'occhio ! - Copyright ORBIFLY Dicembre 2007 - Disclaimer

ORBIFLY MET'MAP TEAM :

Programmazione e sviluppo : Alexandra Zaïnal
Concezione e sviluppo : Baudouin d'Aumeries
Co-Programmazione e sviluppo : Marc-Olivier Méhu
Supporto tecnico e logistico : Manuel Goepfert
Aiuto per la traduzione : Arnaldo La Scala

Contatto : metmap@orbifly.com




FONTI E CREDITI :

   NOAA